Time;durP1;ratioP1;P1;durP2;ratioP2;P2;SDS_P1;SDS_P2;PMS_P1;PMS_P2;Temp;Humidity;BMP_temperature;BMP_pressure;BME280_temperature;BME280_humidity;BME280_pressure;Samples;Min_cycle;Max_cycle;Signal;HPM_P1;HPM_P2
2022/05/19 00:01:01;;;;;;;5.13;4.20;;;22.00;99.90;;;;;;5070025;28;20485;-41
2022/05/19 00:03:23;;;;;;;4.03;3.63;;;22.00;99.90;;;;;;5071817;28;20443;-41
2022/05/19 00:05:49;;;;;;;3.67;3.27;;;22.00;99.90;;;;;;5070955;28;20434;-39
2022/05/19 00:08:14;;;;;;;4.20;3.90;;;22.00;99.90;;;;;;5065956;28;20200;-38
2022/05/19 00:10:40;;;;;;;4.83;3.70;;;22.00;99.90;;;;;;5071594;28;20193;-40
2022/05/19 00:13:05;;;;;;;6.37;3.43;;;22.00;99.90;;;;;;5071508;28;20201;-39
2022/05/19 00:15:31;;;;;;;4.47;4.03;;;22.00;99.90;;;;;;5071928;28;20212;-39
2022/05/19 00:17:57;;;;;;;4.70;3.70;;;22.00;99.90;;;;;;5071384;28;20216;-39
2022/05/19 00:20:22;;;;;;;4.40;4.00;;;22.00;99.90;;;;;;5071341;28;20262;-41
2022/05/19 00:22:48;;;;;;;4.33;3.87;;;22.00;99.90;;;;;;5059553;28;20241;-40
2022/05/19 00:25:13;;;;;;;4.00;3.70;;;22.00;99.90;;;;;;5071621;28;20191;-38
2022/05/19 00:27:39;;;;;;;3.33;3.00;;;21.90;99.90;;;;;;5071302;28;20248;-40
2022/05/19 00:30:05;;;;;;;8.87;4.20;;;21.90;99.90;;;;;;5071029;28;20197;-39
2022/05/19 00:32:31;;;;;;;5.30;3.77;;;22.00;99.90;;;;;;5071305;28;20185;-39
2022/05/19 00:34:57;;;;;;;4.40;4.00;;;22.00;99.90;;;;;;5071559;28;20439;-40
2022/05/19 00:37:23;;;;;;;4.40;4.00;;;22.00;99.90;;;;;;5058619;28;20229;-38
2022/05/19 00:39:50;;;;;;;4.90;3.97;;;22.00;99.90;;;;;;5070013;28;20221;-39
2022/05/19 00:45:02;;;;;;;4.13;3.73;;;22.00;99.90;;;;;;5071424;28;20931;-41
2022/05/19 00:47:35;;;;;;;3.47;3.23;;;22.00;99.90;;;;;;5071282;28;20477;-38
2022/05/19 00:50:02;;;;;;;3.97;3.60;;;22.00;99.90;;;;;;5070591;28;20439;-39
2022/05/19 00:52:30;;;;;;;3.90;3.60;;;22.00;99.90;;;;;;5059504;28;20436;-38
2022/05/19 00:55:11;;;;;;;3.73;3.43;;;22.00;99.90;;;;;;5068627;28;20442;-39
2022/05/19 00:57:43;;;;;;;3.60;3.30;;;22.00;99.90;;;;;;5062314;28;20439;-38
2022/05/19 01:00:15;;;;;;;5.20;3.80;;;22.00;99.90;;;;;;5070373;28;20970;-38
2022/05/19 01:02:47;;;;;;;4.43;4.00;;;22.00;99.90;;;;;;5070028;28;20447;-39
2022/05/19 01:05:19;;;;;;;3.90;3.50;;;22.00;99.90;;;;;;5070760;28;20427;-39
2022/05/19 01:08:09;;;;;;;3.40;3.10;;;22.00;99.90;;;;;;5065823;28;20432;-40
2022/05/19 01:10:36;;;;;;;5.03;3.70;;;21.90;99.90;;;;;;5069936;28;20415;-38
2022/05/19 01:13:03;;;;;;;4.07;3.67;;;22.00;99.90;;;;;;5070628;28;20407;-39
2022/05/19 01:15:33;;;;;;;4.90;3.43;;;22.00;99.90;;;;;;5070420;28;20502;-39
2022/05/19 01:17:59;;;;;;;3.97;3.50;;;21.90;99.90;;;;;;5089760;28;20446;-38
2022/05/19 01:20:26;;;;;;;5.53;3.87;;;22.00;99.90;;;;;;5090193;28;20438;-38
2022/05/19 01:22:55;;;;;;;3.80;3.50;;;22.00;99.90;;;;;;5060789;28;20793;-38
2022/05/19 01:25:30;;;;;;;4.53;3.87;;;22.00;99.90;;;;;;5070326;28;20986;-38
2022/05/19 01:27:55;;;;;;;3.73;3.43;;;22.00;99.90;;;;;;5057498;28;20422;-39
2022/05/19 01:30:21;;;;;;;5.30;3.60;;;22.00;99.90;;;;;;5069664;28;20450;-38
2022/05/19 01:32:47;;;;;;;4.53;3.80;;;21.90;99.90;;;;;;5070475;28;20192;-40
2022/05/19 01:35:13;;;;;;;6.20;4.20;;;21.90;99.90;;;;;;5070255;28;20487;-38
2022/05/19 01:37:39;;;;;;;5.30;3.83;;;21.90;99.90;;;;;;5058825;28;20272;-39
2022/05/19 01:40:09;;;;;;;4.23;3.83;;;21.90;99.90;;;;;;5068533;28;20502;-38
2022/05/19 01:43:09;;;;;;;4.37;3.93;;;21.90;99.90;;;;;;5069849;28;20185;-38
2022/05/19 01:45:55;;;;;;;4.13;3.73;;;21.90;99.90;;;;;;5069999;28;20459;-38
2022/05/19 01:48:32;;;;;;;4.80;3.40;;;21.90;99.90;;;;;;5070050;28;20424;-38
2022/05/19 01:51:03;;;;;;;4.53;4.13;;;21.80;99.90;;;;;;5069225;28;20426;-39
2022/05/19 01:53:35;;;;;;;5.00;3.40;;;21.80;99.90;;;;;;5061463;28;20855;-38
2022/05/19 01:56:04;;;;;;;6.10;3.33;;;21.90;99.90;;;;;;5069496;28;20522;-39
2022/05/19 01:58:29;;;;;;;4.73;3.77;;;21.80;99.90;;;;;;5069723;28;20483;-39
2022/05/19 02:00:59;;;;;;;4.50;4.10;;;21.90;99.90;;;;;;5068249;28;20458;-39
2022/05/19 02:03:48;;;;;;;4.37;3.97;;;21.90;99.90;;;;;;5069448;28;20185;-39
2022/05/19 02:06:37;;;;;;;4.00;3.57;;;21.80;99.90;;;;;;5069683;28;20407;-38
2022/05/19 02:09:07;;;;;;;4.13;3.70;;;21.80;99.90;;;;;;5059995;28;20447;-38
2022/05/19 02:11:38;;;;;;;4.23;3.93;;;21.80;99.90;;;;;;5068746;28;20431;-39
2022/05/19 02:14:08;;;;;;;5.67;3.90;;;21.80;99.90;;;;;;5069598;28;20800;-38
2022/05/19 02:16:35;;;;;;;4.03;3.60;;;21.80;99.90;;;;;;5069504;28;20464;-39
2022/05/19 02:19:01;;;;;;;4.23;3.73;;;21.80;99.90;;;;;;5069532;28;20507;-38
2022/05/19 02:21:28;;;;;;;3.90;3.57;;;21.80;99.90;;;;;;5067521;28;20415;-38
2022/05/19 02:23:58;;;;;;;4.43;3.53;;;21.80;99.90;;;;;;5063832;28;20188;-38
2022/05/19 02:26:24;;;;;;;4.27;3.43;;;21.70;99.90;;;;;;5069279;28;20470;-38
2022/05/19 02:28:53;;;;;;;4.33;3.87;;;21.70;99.90;;;;;;5069342;28;20451;-38
2022/05/19 02:31:18;;;;;;;4.20;3.70;;;21.80;99.90;;;;;;5068838;28;20191;-38
2022/05/19 02:33:44;;;;;;;5.83;4.10;;;21.70;99.90;;;;;;5069098;28;20423;-39
2022/05/19 02:36:11;;;;;;;4.70;4.20;;;21.70;99.90;;;;;;5069411;28;20181;-40
2022/05/19 02:38:36;;;;;;;4.13;3.57;;;21.60;99.90;;;;;;5061948;28;20201;-38
2022/05/19 02:41:03;;;;;;;4.70;3.93;;;21.60;99.90;;;;;;5069476;28;20496;-38
2022/05/19 02:43:29;;;;;;;3.97;3.67;;;21.70;99.90;;;;;;5068986;28;20173;-38
2022/05/19 02:45:55;;;;;;;4.27;3.93;;;21.70;99.90;;;;;;5069251;28;20971;-39
2022/05/19 02:48:20;;;;;;;5.50;4.00;;;21.70;99.90;;;;;;5068779;28;20697;-40
2022/05/19 02:50:48;;;;;;;3.87;3.30;;;21.60;99.90;;;;;;5068698;28;20189;-38
2022/05/19 02:53:15;;;;;;;4.63;4.07;;;21.60;99.90;;;;;;5058357;28;20186;-39
2022/05/19 02:55:41;;;;;;;3.57;3.27;;;21.60;99.90;;;;;;5067563;28;20443;-39
2022/05/19 02:58:08;;;;;;;4.17;3.87;;;21.60;99.90;;;;;;5068684;28;20459;-38
2022/05/19 03:00:34;;;;;;;5.07;4.20;;;21.60;99.90;;;;;;5067656;28;20910;-38
2022/05/19 03:03:00;;;;;;;6.10;4.17;;;21.60;99.90;;;;;;5068588;28;20430;-38
2022/05/19 03:05:33;;;;;;;4.63;3.67;;;21.50;99.90;;;;;;5069000;28;20419;-38
2022/05/19 03:07:59;;;;;;;5.37;3.73;;;21.50;99.90;;;;;;5060264;28;20712;-38
2022/05/19 03:10:25;;;;;;;4.10;3.70;;;21.50;99.90;;;;;;5062242;28;20430;-38
2022/05/19 03:12:54;;;;;;;5.80;4.20;;;21.50;99.90;;;;;;5068709;28;20446;-38
2022/05/19 03:15:20;;;;;;;8.50;4.33;;;21.50;99.90;;;;;;5068883;28;20445;-38
2022/05/19 03:17:45;;;;;;;4.00;3.70;;;21.50;99.90;;;;;;5068673;28;20435;-38
2022/05/19 03:20:12;;;;;;;4.40;4.00;;;21.50;99.90;;;;;;5072029;28;20192;-38
2022/05/19 03:22:38;;;;;;;4.00;3.63;;;21.50;99.90;;;;;;5067151;28;20200;-38
2022/05/19 03:25:06;;;;;;;4.40;4.00;;;21.50;99.90;;;;;;5065232;28;20419;-39
2022/05/19 03:27:33;;;;;;;4.50;3.60;;;21.40;99.90;;;;;;5072680;28;20208;-38
2022/05/19 03:29:58;;;;;;;5.40;3.77;;;21.40;99.90;;;;;;5072138;28;20431;-38
2022/05/19 03:32:24;;;;;;;3.57;3.37;;;21.40;99.90;;;;;;5072598;28;20500;-39
2022/05/19 03:34:49;;;;;;;4.23;3.83;;;21.40;99.90;;;;;;5072580;28;20227;-39
2022/05/19 03:37:15;;;;;;;4.60;3.57;;;21.40;99.90;;;;;;5069078;28;20197;-39
2022/05/19 03:39:41;;;;;;;4.63;4.20;;;21.30;99.90;;;;;;5067952;28;20722;-38
2022/05/19 03:42:07;;;;;;;5.10;3.77;;;21.40;99.90;;;;;;5072285;28;20542;-38
2022/05/19 03:44:35;;;;;;;4.73;3.83;;;21.30;99.90;;;;;;5071530;28;20185;-38
2022/05/19 03:47:01;;;;;;;6.93;4.00;;;21.30;99.90;;;;;;5072237;28;20446;-38
2022/05/19 03:49:27;;;;;;;5.90;4.20;;;21.30;99.90;;;;;;5072212;28;20522;-38
2022/05/19 03:51:53;;;;;;;4.27;3.87;;;21.20;99.90;;;;;;5070399;28;20881;-39
2022/05/19 03:54:18;;;;;;;4.50;4.20;;;21.20;99.90;;;;;;5061757;28;20965;-39
2022/05/19 03:56:44;;;;;;;4.27;3.60;;;21.20;99.90;;;;;;5071734;28;20295;-39
2022/05/19 03:59:10;;;;;;;4.00;3.60;;;21.20;99.90;;;;;;5072042;28;20247;-38
2022/05/19 04:01:36;;;;;;;4.60;4.20;;;21.10;99.90;;;;;;5070284;28;20200;-38
2022/05/19 04:04:02;;;;;;;4.10;3.60;;;21.20;99.90;;;;;;5071925;28;20189;-39
2022/05/19 04:06:28;;;;;;;3.93;3.60;;;21.20;99.90;;;;;;5071990;28;20427;-38
2022/05/19 04:08:54;;;;;;;5.03;4.63;;;21.20;99.90;;;;;;5063759;28;20439;-38
2022/05/19 04:11:20;;;;;;;4.13;3.73;;;21.20;99.90;;;;;;5070976;28;20427;-38
2022/05/19 04:13:45;;;;;;;4.30;3.90;;;21.20;99.90;;;;;;5071851;28;20199;-38
2022/05/19 04:16:11;;;;;;;4.63;4.20;;;21.20;99.90;;;;;;5071609;28;20185;-38
2022/05/19 04:18:38;;;;;;;4.20;3.80;;;21.10;99.90;;;;;;5071645;28;20691;-38
2022/05/19 04:21:04;;;;;;;3.60;3.40;;;21.10;99.90;;;;;;5071046;28;20181;-39
2022/05/19 04:23:30;;;;;;;4.30;3.90;;;21.10;99.90;;;;;;5061351;28;20847;-38
2022/05/19 04:25:56;;;;;;;4.20;3.70;;;21.10;99.90;;;;;;5069736;28;20514;-38
2022/05/19 04:28:22;;;;;;;4.47;3.90;;;21.10;99.90;;;;;;5071444;28;20323;-38
2022/05/19 04:30:48;;;;;;;6.43;4.03;;;21.10;99.90;;;;;;5070031;28;20189;-38
2022/05/19 04:33:13;;;;;;;4.30;3.90;;;21.10;99.90;;;;;;5071322;28;20424;-38
2022/05/19 04:35:39;;;;;;;4.70;3.93;;;21.10;99.90;;;;;;5071385;28;20215;-38
2022/05/19 04:38:08;;;;;;;4.27;3.47;;;21.00;99.90;;;;;;5065286;28;20695;-38
2022/05/19 04:40:39;;;;;;;4.97;4.60;;;21.10;99.90;;;;;;5070311;28;20485;-38
2022/05/19 04:43:06;;;;;;;4.33;3.70;;;21.10;99.90;;;;;;5059895;28;20442;-38
2022/05/19 04:45:32;;;;;;;4.17;3.77;;;21.10;99.90;;;;;;5058988;28;20428;-38
2022/05/19 04:47:58;;;;;;;3.70;3.40;;;21.00;99.90;;;;;;5068255;28;20484;-38
2022/05/19 04:50:23;;;;;;;5.47;3.83;;;21.10;99.90;;;;;;5067618;28;21015;-38
2022/05/19 04:52:49;;;;;;;4.00;3.60;;;21.10;99.90;;;;;;5065262;28;20535;-38
2022/05/19 04:55:14;;;;;;;5.37;3.97;;;21.10;99.90;;;;;;5070716;28;20209;-38
2022/05/19 04:57:42;;;;;;;4.20;3.90;;;21.10;99.90;;;;;;5070721;28;20208;-38
2022/05/19 05:00:10;;;;;;;3.60;3.40;;;21.20;99.90;;;;;;5070498;28;20177;-38
2022/05/19 05:02:36;;;;;;;3.77;3.47;;;21.20;99.90;;;;;;5070424;28;20426;-38
2022/05/19 05:05:02;;;;;;;4.40;3.60;;;21.20;99.90;;;;;;5070959;28;20419;-38
2022/05/19 05:07:28;;;;;;;4.23;3.83;;;21.20;99.90;;;;;;5071056;28;20186;-38
2022/05/19 05:09:53;;;;;;;4.43;3.50;;;21.20;99.90;;;;;;5062900;28;20937;-38
2022/05/19 05:12:19;;;;;;;5.73;4.00;;;21.30;99.90;;;;;;5070739;28;20193;-38
2022/05/19 05:14:45;;;;;;;5.03;4.50;;;21.30;99.90;;;;;;5070527;28;20197;-39
2022/05/19 05:17:10;;;;;;;4.07;3.77;;;21.40;99.90;;;;;;5070514;28;20193;-39
2022/05/19 05:19:36;;;;;;;4.30;4.00;;;21.40;99.90;;;;;;5066083;28;20263;-38
2022/05/19 05:22:02;;;;;;;4.20;3.50;;;21.50;99.90;;;;;;5067726;28;20524;-38
2022/05/19 05:24:28;;;;;;;4.00;3.70;;;21.50;99.90;;;;;;5059588;28;20679;-39
2022/05/19 05:26:53;;;;;;;4.57;3.50;;;21.50;99.90;;;;;;5070548;28;20636;-38
2022/05/19 05:29:20;;;;;;;4.10;3.70;;;21.50;99.90;;;;;;5068682;28;20431;-39
2022/05/19 05:31:46;;;;;;;5.83;3.53;;;21.50;99.90;;;;;;5069906;28;20192;-38
2022/05/19 05:34:12;;;;;;;4.40;3.53;;;21.60;99.90;;;;;;5069974;28;20929;-39
2022/05/19 05:36:38;;;;;;;5.83;3.83;;;21.60;99.90;;;;;;5070350;28;20185;-39
2022/05/19 05:39:04;;;;;;;4.83;3.57;;;21.60;99.90;;;;;;5064863;28;20556;-38
2022/05/19 05:41:30;;;;;;;3.47;3.17;;;21.60;99.90;;;;;;5068074;28;20185;-38
2022/05/19 05:43:55;;;;;;;7.47;3.87;;;21.60;99.90;;;;;;5069945;28;20944;-39
2022/05/19 05:46:21;;;;;;;5.13;3.60;;;21.60;99.90;;;;;;5069779;28;20548;-39
2022/05/19 05:48:48;;;;;;;4.13;3.73;;;21.60;99.90;;;;;;5081705;28;20848;-38
2022/05/19 05:51:16;;;;;;;5.83;3.37;;;21.60;99.90;;;;;;5069201;28;20423;-38
2022/05/19 05:53:43;;;;;;;4.53;3.80;;;21.70;99.90;;;;;;5062782;28;20970;-38
2022/05/19 05:56:13;;;;;;;4.07;3.60;;;21.70;99.90;;;;;;5065037;28;20447;-41
2022/05/19 05:58:39;;;;;;;5.73;4.13;;;21.70;99.90;;;;;;5065445;28;20455;-39
2022/05/19 06:01:08;;;;;;;3.50;3.30;;;21.70;99.90;;;;;;5068364;28;20969;-41
2022/05/19 06:03:34;;;;;;;4.33;3.87;;;21.70;99.90;;;;;;5066801;28;20427;-39
2022/05/19 06:06:01;;;;;;;4.87;3.50;;;21.70;99.90;;;;;;5068202;28;20415;-39
2022/05/19 06:08:27;;;;;;;4.17;3.73;;;21.70;99.90;;;;;;5065750;28;20432;-39
2022/05/19 06:10:53;;;;;;;5.20;3.67;;;21.70;99.90;;;;;;5064160;28;20472;-39
2022/05/19 06:13:19;;;;;;;3.77;3.40;;;21.70;99.90;;;;;;5069193;28;20504;-40
2022/05/19 06:15:45;;;;;;;4.77;4.10;;;21.70;99.90;;;;;;5069478;28;20200;-38
2022/05/19 06:18:11;;;;;;;9.80;3.80;;;21.80;99.90;;;;;;5069515;28;20466;-41
2022/05/19 06:20:38;;;;;;;3.87;3.47;;;21.80;99.90;;;;;;5068880;28;20423;-40
2022/05/19 06:23:05;;;;;;;6.13;4.10;;;22.00;99.90;;;;;;5067864;28;20801;-38
2022/05/19 06:25:32;;;;;;;7.77;4.20;;;22.20;99.90;;;;;;5076136;28;20466;-40
2022/05/19 06:28:00;;;;;;;5.53;3.50;;;22.40;99.90;;;;;;5067605;28;20480;-40
2022/05/19 06:30:27;;;;;;;5.10;4.03;;;22.50;99.90;;;;;;5064677;28;20438;-38
2022/05/19 06:32:53;;;;;;;4.50;4.20;;;22.60;99.90;;;;;;5068278;28;20925;-41
2022/05/19 06:35:23;;;;;;;3.50;3.27;;;22.80;99.90;;;;;;5068829;28;20416;-39
2022/05/19 06:37:49;;;;;;;4.70;4.30;;;23.00;99.90;;;;;;5068382;28;20505;-39
2022/05/19 06:40:16;;;;;;;5.97;4.03;;;23.00;99.90;;;;;;5058186;28;20446;-38
2022/05/19 06:42:43;;;;;;;4.50;4.07;;;22.90;99.90;;;;;;5068763;28;20467;-39
2022/05/19 06:45:10;;;;;;;4.30;3.57;;;22.90;99.90;;;;;;5069066;28;20426;-42
2022/05/19 06:47:36;;;;;;;5.00;4.60;;;23.00;99.90;;;;;;5068895;28;20930;-41
2022/05/19 06:50:04;;;;;;;8.63;4.67;;;23.20;99.90;;;;;;5068543;28;20431;-38
2022/05/19 06:52:32;;;;;;;4.53;4.13;;;23.40;99.90;;;;;;5067731;28;20431;-39
2022/05/19 06:55:02;;;;;;;4.03;3.63;;;23.50;99.90;;;;;;5060535;28;20513;-41
2022/05/19 06:57:30;;;;;;;4.67;3.83;;;23.60;99.90;;;;;;5068584;28;20601;-41
2022/05/19 06:59:57;;;;;;;8.00;4.03;;;23.60;99.70;;;;;;5068461;28;20576;-39
2022/05/19 07:02:24;;;;;;;4.13;3.77;;;23.60;99.90;;;;;;5068919;28;20458;-40
2022/05/19 07:04:50;;;;;;;5.50;3.60;;;23.50;99.90;;;;;;5068847;28;20662;-39
2022/05/19 07:07:17;;;;;;;3.73;3.43;;;23.50;99.90;;;;;;5069121;28;20435;-41
2022/05/19 07:09:42;;;;;;;5.60;4.40;;;23.60;99.90;;;;;;5057620;28;20447;-39
2022/05/19 07:12:09;;;;;;;3.83;3.50;;;23.70;99.90;;;;;;5068668;28;20421;-42
2022/05/19 07:14:35;;;;;;;4.00;3.50;;;23.80;99.90;;;;;;5068568;28;20427;-39
2022/05/19 07:17:01;;;;;;;3.77;3.47;;;23.70;99.90;;;;;;5069081;28;20448;-40
2022/05/19 07:22:22;;;;;;;4.63;4.23;;;23.50;99.90;;;;;;5068390;28;20200;-39
2022/05/19 07:24:48;;;;;;;5.00;4.50;;;23.40;99.90;;;;;;5058057;28;20526;-39
2022/05/19 07:27:14;;;;;;;5.63;4.60;;;23.30;99.90;;;;;;5068844;28;20893;-41
2022/05/19 07:29:40;;;;;;;4.40;4.00;;;23.30;99.90;;;;;;5066465;28;20800;-45
2022/05/19 07:32:08;;;;;;;4.73;3.83;;;23.30;99.90;;;;;;5067291;28;20526;-39
2022/05/19 07:34:36;;;;;;;4.70;4.00;;;23.40;99.90;;;;;;5068264;28;20427;-38
2022/05/19 07:37:02;;;;;;;6.37;4.13;;;23.40;99.90;;;;;;5068856;28;20440;-44
2022/05/19 07:39:28;;;;;;;6.00;4.10;;;23.50;99.90;;;;;;5060904;28;20513;-39
2022/05/19 07:41:55;;;;;;;4.60;4.20;;;23.50;99.90;;;;;;5071292;28;20431;-39
2022/05/19 07:44:22;;;;;;;7.30;4.53;;;23.60;99.90;;;;;;5068644;28;20764;-39
2022/05/19 07:46:48;;;;;;;3.73;3.43;;;23.70;99.90;;;;;;5068524;28;20428;-39
2022/05/19 07:49:14;;;;;;;4.00;3.60;;;23.80;99.90;;;;;;5068370;28;20987;-39
2022/05/19 07:51:41;;;;;;;4.00;3.70;;;24.00;99.90;;;;;;5068084;28;20577;-43
2022/05/19 07:54:10;;;;;;;3.93;3.63;;;24.10;99.90;;;;;;5063183;28;20186;-40
2022/05/19 07:56:37;;;;;;;4.60;4.20;;;24.20;99.90;;;;;;5064509;28;20458;-38
2022/05/19 07:59:04;;;;;;;5.23;3.97;;;24.20;99.90;;;;;;5068438;28;20498;-41
2022/05/19 08:01:30;;;;;;;3.97;3.67;;;24.10;99.90;;;;;;5067679;28;20922;-41
2022/05/19 08:03:59;;;;;;;5.40;4.40;;;24.10;99.90;;;;;;5068222;28;20507;-40
2022/05/19 08:06:25;;;;;;;5.73;4.10;;;24.10;99.90;;;;;;5070442;28;20490;-39
2022/05/19 08:08:51;;;;;;;5.63;4.10;;;24.00;99.90;;;;;;5068688;28;20435;-40
2022/05/19 08:11:17;;;;;;;4.17;3.77;;;24.00;99.90;;;;;;5065099;28;20508;-38
2022/05/19 08:16:27;;;;;;;5.10;4.13;;;24.00;99.90;;;;;;5070730;28;20234;-41
2022/05/19 08:18:52;;;;;;;5.00;4.30;;;24.10;99.90;;;;;;5073399;28;20563;-39
2022/05/19 08:21:18;;;;;;;6.20;4.27;;;24.10;99.90;;;;;;5069377;28;20189;-39
2022/05/19 08:23:47;;;;;;;4.87;4.47;;;24.10;99.90;;;;;;5069704;28;20189;-39
2022/05/19 08:26:14;;;;;;;4.40;4.00;;;24.10;99.90;;;;;;5063797;28;20250;-39
2022/05/19 08:28:41;;;;;;;6.40;4.30;;;24.20;99.90;;;;;;5071293;28;20419;-40
2022/05/19 08:31:09;;;;;;;4.50;4.10;;;24.20;99.90;;;;;;5069645;28;21128;-41
2022/05/19 08:33:36;;;;;;;4.70;4.17;;;24.20;99.90;;;;;;5071464;28;21036;-40
2022/05/19 08:36:03;;;;;;;5.80;5.23;;;24.20;99.90;;;;;;5071536;28;20514;-39
2022/05/19 08:38:28;;;;;;;7.37;4.10;;;24.20;99.90;;;;;;5071308;28;20462;-40
2022/05/19 08:41:02;;;;;;;4.20;3.90;;;24.20;99.90;;;;;;5059287;28;20438;-39
2022/05/19 08:43:41;;;;;;;4.63;4.20;;;24.30;99.90;;;;;;5070994;28;20583;-39
2022/05/19 08:46:07;;;;;;;4.33;4.00;;;24.30;99.90;;;;;;5071391;28;20503;-41
2022/05/19 08:48:35;;;;;;;3.70;3.40;;;24.30;99.90;;;;;;5071090;28;20973;-40
2022/05/19 08:51:06;;;;;;;4.87;4.37;;;24.20;99.90;;;;;;5053167;28;20201;-40
2022/05/19 08:53:36;;;;;;;4.63;4.23;;;24.20;99.90;;;;;;5071048;28;20998;-42
2022/05/19 08:56:25;;;;;;;6.10;4.37;;;24.20;99.90;;;;;;5064085;28;21129;-40
2022/05/19 08:59:10;;;;;;;5.30;3.97;;;24.20;99.90;;;;;;5067997;28;20478;-40
2022/05/19 09:01:45;;;;;;;4.10;3.80;;;24.20;99.90;;;;;;5070781;28;20797;-42
2022/05/19 09:04:29;;;;;;;7.07;3.87;;;24.20;99.90;;;;;;5070669;28;20419;-39
2022/05/19 09:10:14;;;;;;;3.97;3.67;;;24.20;99.90;;;;;;5064010;28;20435;-40
2022/05/19 09:12:43;;;;;;;4.93;4.50;;;24.20;99.90;;;;;;5026743;28;20428;-42
2022/05/19 09:15:10;;;;;;;4.83;4.27;;;24.20;99.90;;;;;;5069614;28;20430;-40
2022/05/19 09:17:40;;;;;;;4.50;4.10;;;24.30;99.90;;;;;;5070669;28;20430;-40
2022/05/19 09:20:10;;;;;;;5.70;4.40;;;24.40;99.90;;;;;;5070254;28;21098;-39
2022/05/19 09:22:36;;;;;;;6.57;4.40;;;24.40;99.90;;;;;;5070785;28;20989;-42
2022/05/19 09:25:06;;;;;;;5.03;4.50;;;24.50;99.90;;;;;;5069846;28;20519;-42
2022/05/19 09:27:35;;;;;;;5.13;4.63;;;24.70;99.90;;;;;;5068169;28;20191;-39
2022/05/19 09:30:02;;;;;;;4.60;4.20;;;24.70;99.90;;;;;;5066874;28;20427;-39
2022/05/19 09:32:31;;;;;;;4.53;4.13;;;24.80;99.90;;;;;;5085896;28;20871;-39
2022/05/19 09:35:35;;;;;;;4.70;4.10;;;24.90;99.90;;;;;;5070158;28;20429;-40
2022/05/19 09:38:17;;;;;;;4.70;4.30;;;25.00;99.90;;;;;;5048491;28;20504;-40
2022/05/19 09:40:48;;;;;;;4.70;4.30;;;25.00;99.70;;;;;;5065731;28;20432;-41
2022/05/19 09:43:17;;;;;;;4.63;4.23;;;25.00;99.20;;;;;;5066156;28;20423;-39
2022/05/19 09:45:53;;;;;;;5.10;4.60;;;25.10;98.90;;;;;;5069930;28;20446;-42
2022/05/19 09:48:30;;;;;;;4.13;3.83;;;25.20;99.60;;;;;;5070074;28;20503;-39
2022/05/19 09:51:09;;;;;;;7.20;4.37;;;25.20;99.50;;;;;;5069443;28;20427;-39
2022/05/19 09:53:41;;;;;;;4.70;4.30;;;25.40;99.80;;;;;;5070151;28;20882;-41
2022/05/19 09:56:15;;;;;;;4.40;4.10;;;25.50;99.00;;;;;;5058843;28;20458;-41
2022/05/19 09:58:45;;;;;;;4.60;4.30;;;25.60;98.60;;;;;;5068451;28;20466;-41
2022/05/19 10:01:42;;;;;;;4.50;4.20;;;25.70;99.00;;;;;;5069366;28;20434;-40
2022/05/19 10:04:24;;;;;;;5.00;4.60;;;25.80;98.90;;;;;;5061238;28;20443;-40
2022/05/19 10:06:56;;;;;;;5.47;4.97;;;25.90;98.90;;;;;;5056647;28;20462;-41
2022/05/19 10:09:34;;;;;;;4.77;4.37;;;25.90;98.00;;;;;;5069674;28;20484;-40
2022/05/19 10:12:08;;;;;;;4.70;4.30;;;25.90;98.30;;;;;;5059613;28;20484;-41
2022/05/19 10:14:35;;;;;;;4.70;4.30;;;25.90;97.50;;;;;;5069611;28;20430;-39
2022/05/19 10:17:21;;;;;;;5.20;4.80;;;26.00;98.80;;;;;;5068049;28;20419;-44
2022/05/19 10:20:03;;;;;;;5.27;4.80;;;26.10;97.30;;;;;;5069030;28;21198;-40
2022/05/19 10:22:50;;;;;;;5.07;4.57;;;26.10;97.10;;;;;;5069254;28;20435;-40
2022/05/19 10:25:34;;;;;;;5.43;4.93;;;26.10;97.50;;;;;;5063980;28;20507;-39
2022/05/19 10:31:28;;;;;;;4.53;4.13;;;26.30;98.30;;;;;;5066301;28;20418;-41
2022/05/19 10:34:28;;;;;;;4.93;4.43;;;26.40;97.60;;;;;;5069111;28;20420;-44
2022/05/19 10:37:02;;;;;;;4.97;4.57;;;26.50;97.40;;;;;;5069107;28;20456;-39
2022/05/19 10:39:35;;;;;;;4.53;3.93;;;26.60;98.20;;;;;;5077426;28;21047;-41
2022/05/19 10:42:24;;;;;;;4.63;4.23;;;26.70;96.70;;;;;;5054295;28;20755;-38
2022/05/19 10:45:07;;;;;;;4.30;4.00;;;26.80;96.30;;;;;;5069163;28;20442;-43
2022/05/19 10:47:54;;;;;;;4.57;4.27;;;26.90;96.70;;;;;;5067822;28;20506;-42
2022/05/19 10:50:30;;;;;;;4.07;3.77;;;27.00;97.40;;;;;;5068416;28;20785;-40
2022/05/19 10:53:31;;;;;;;4.73;4.33;;;27.10;96.70;;;;;;5069084;28;20984;-43
2022/05/19 10:56:39;;;;;;;5.00;4.50;;;27.00;96.00;;;;;;5059959;28;20490;-39
2022/05/19 10:59:22;;;;;;;4.77;4.43;;;26.90;96.20;;;;;;5068716;28;20565;-41
2022/05/19 11:02:13;;;;;;;5.03;4.63;;;26.90;96.90;;;;;;5068457;28;20427;-40
2022/05/19 11:05:16;;;;;;;5.17;4.67;;;26.80;97.10;;;;;;5068962;28;20465;-43
2022/05/19 11:07:49;;;;;;;6.13;4.73;;;26.90;96.60;;;;;;5068951;28;20767;-42
2022/05/19 11:10:31;;;;;;;4.63;4.30;;;26.80;96.30;;;;;;5065502;28;20443;-42
2022/05/19 11:13:42;;;;;;;5.63;4.20;;;26.70;96.90;;;;;;5060806;28;20431;-45
2022/05/19 11:16:26;;;;;;;4.80;4.50;;;26.70;96.10;;;;;;5045837;28;20486;-44
2022/05/19 11:18:55;;;;;;;4.50;4.10;;;26.70;96.80;;;;;;5045728;28;20471;-43
2022/05/19 11:21:41;;;;;;;4.47;4.07;;;26.70;96.50;;;;;;5047242;28;20439;-41
2022/05/19 11:24:26;;;;;;;4.83;4.43;;;26.70;96.70;;;;;;5068609;28;20419;-41
2022/05/19 11:27:04;;;;;;;5.47;4.57;;;26.90;96.80;;;;;;5058114;28;20459;-39
2022/05/19 11:29:54;;;;;;;4.97;4.67;;;27.00;97.00;;;;;;5067079;28;20426;-40
2022/05/19 11:32:27;;;;;;;5.47;5.07;;;27.10;96.90;;;;;;5068816;28;20435;-39
2022/05/19 11:35:04;;;;;;;4.73;4.43;;;27.10;96.70;;;;;;5068484;28;20427;-41
2022/05/19 11:37:53;;;;;;;4.90;4.50;;;27.00;96.70;;;;;;5068675;28;20892;-39
2022/05/19 11:40:52;;;;;;;5.33;4.83;;;27.00;96.90;;;;;;5082027;28;20465;-40
2022/05/19 11:43:31;;;;;;;5.00;4.60;;;27.00;96.00;;;;;;5065797;28;20422;-42
2022/05/19 11:46:00;;;;;;;4.73;4.30;;;27.00;96.20;;;;;;5072305;28;20437;-39
2022/05/19 11:55:17;;;;;;;4.50;4.20;;;27.10;97.10;;;;;;5072381;28;20488;-41
2022/05/19 11:58:10;;;;;;;5.10;4.70;;;27.00;97.80;;;;;;5060975;28;20478;-39
2022/05/19 12:00:55;;;;;;;4.93;4.53;;;27.00;98.20;;;;;;5067124;28;20438;-41
2022/05/19 12:03:36;;;;;;;4.80;4.40;;;27.20;98.20;;;;;;5071875;28;20433;-39
2022/05/19 12:06:44;;;;;;;5.50;5.10;;;27.20;98.10;;;;;;5072063;28;20415;-40
2022/05/19 12:09:29;;;;;;;5.07;4.67;;;27.10;97.50;;;;;;5071013;28;20430;-43
2022/05/19 12:12:01;;;;;;;5.30;4.90;;;27.10;98.00;;;;;;5060252;28;20520;-38
2022/05/19 12:14:27;;;;;;;5.57;5.17;;;27.10;98.00;;;;;;5071746;28;20434;-39
2022/05/19 12:17:11;;;;;;;8.07;5.20;;;27.30;97.70;;;;;;5071908;28;20423;-38
2022/05/19 12:19:42;;;;;;;5.20;4.77;;;27.40;96.90;;;;;;5087016;28;20735;-40
2022/05/19 12:22:28;;;;;;;6.40;4.90;;;27.40;96.70;;;;;;5071440;28;20430;-41
2022/05/19 12:25:07;;;;;;;6.17;4.40;;;27.50;96.20;;;;;;5060998;28;20415;-39
2022/05/19 12:27:38;;;;;;;5.23;4.60;;;27.50;95.80;;;;;;5061871;28;20427;-40
2022/05/19 12:33:13;;;;;;;4.30;4.00;;;27.50;95.50;;;;;;5060584;28;20423;-39
2022/05/19 12:35:41;;;;;;;4.90;4.50;;;27.60;96.30;;;;;;5071627;28;20430;-41
2022/05/19 12:38:34;;;;;;;5.20;4.80;;;27.70;95.80;;;;;;5071503;28;20427;-38
2022/05/19 12:41:08;;;;;;;4.80;4.40;;;27.70;94.90;;;;;;5055615;28;20792;-40
2022/05/19 12:43:37;;;;;;;4.67;4.20;;;27.80;95.70;;;;;;5067086;28;20937;-41
2022/05/19 12:46:04;;;;;;;4.43;4.00;;;27.90;95.20;;;;;;5071543;28;20510;-39
2022/05/19 12:48:33;;;;;;;5.47;4.97;;;27.90;95.30;;;;;;5071112;28;20906;-41
2022/05/19 12:51:14;;;;;;;5.50;4.77;;;28.00;95.80;;;;;;5070126;28;20506;-42
2022/05/19 12:53:49;;;;;;;4.73;4.10;;;28.10;95.30;;;;;;5071254;28;20423;-40
2022/05/19 12:56:50;;;;;;;6.17;4.10;;;28.00;94.60;;;;;;5065818;28;20502;-40
2022/05/19 12:59:35;;;;;;;5.80;4.33;;;27.80;94.30;;;;;;5063483;28;20459;-38
2022/05/19 13:02:07;;;;;;;4.40;4.10;;;27.70;94.20;;;;;;5068262;28;20502;-39
2022/05/19 13:04:41;;;;;;;7.80;4.33;;;27.70;94.60;;;;;;5070876;28;20906;-41
2022/05/19 13:07:23;;;;;;;4.77;4.00;;;27.60;94.90;;;;;;5071076;28;20426;-40
2022/05/19 13:10:01;;;;;;;6.67;4.73;;;27.50;94.40;;;;;;5070168;28;20434;-38
2022/05/19 13:12:38;;;;;;;4.73;4.33;;;27.40;94.90;;;;;;5072891;28;20435;-39
2022/05/19 13:15:05;;;;;;;4.80;4.50;;;27.40;95.20;;;;;;5070063;28;21172;-40
2022/05/19 13:17:44;;;;;;;4.70;4.30;;;27.30;95.70;;;;;;5070947;28;20795;-41
2022/05/19 13:20:21;;;;;;;6.83;4.80;;;27.20;95.70;;;;;;5068719;28;20466;-39
2022/05/19 13:22:55;;;;;;;5.00;4.33;;;27.10;95.80;;;;;;5070597;28;20442;-39
2022/05/19 13:25:21;;;;;;;5.07;4.57;;;27.00;96.20;;;;;;5070487;28;20451;-38
2022/05/19 13:30:43;;;;;;;5.97;4.53;;;27.00;97.20;;;;;;5063641;28;20458;-39
2022/05/19 13:33:19;;;;;;;8.80;4.00;;;26.90;97.20;;;;;;5062054;28;20498;-41
2022/05/19 13:35:45;;;;;;;18.00;4.27;;;26.60;95.60;;;;;;5068938;28;20469;-40